Time;durP1;ratioP1;P1;durP2;ratioP2;P2;SDS_P1;SDS_P2;PMS_P1;PMS_P2;Temp;Humidity;BMP_temperature;BMP_pressure;BME280_temperature;BME280_humidity;BME280_pressure;Samples;Min_cycle;Max_cycle;Signal;HPM_P1;HPM_P2
2020/12/29 00:01:49;;;;;;;14.32;11.35;;;4.60;78.80;;;3.57;62.91;91755.53;5051147;28;20385;-81
2020/12/29 00:04:27;;;;;;;15.50;11.13;;;4.50;78.80;;;3.55;62.86;91752.38;5039848;28;20287;-81
2020/12/29 00:06:56;;;;;;;15.68;11.32;;;4.50;78.80;;;3.53;62.89;91753.38;5053444;28;20195;-81
2020/12/29 00:09:25;;;;;;;14.07;10.63;;;4.50;78.70;;;3.52;62.83;91753.63;5067236;28;20316;-81
2020/12/29 00:11:54;;;;;;;17.40;11.52;;;4.50;78.80;;;3.51;62.85;91755.41;5070803;28;20212;-81
2020/12/29 00:14:23;;;;;;;14.18;10.73;;;4.40;78.70;;;3.46;62.98;91755.31;5063852;28;20216;-81
2020/12/29 00:16:50;;;;;;;13.75;10.57;;;4.50;78.80;;;3.48;63.34;91761.06;5054853;28;20241;-81
2020/12/29 00:19:22;;;;;;;15.68;10.02;;;4.40;78.70;;;3.44;63.02;91759.94;5034470;28;20309;-81
2020/12/29 00:21:49;;;;;;;15.05;10.55;;;4.40;78.80;;;3.41;62.93;91773.34;5034510;28;20196;-81
2020/12/29 00:24:15;;;;;;;14.65;10.70;;;4.40;78.80;;;3.44;63.08;91782.47;5034842;28;20310;-81
2020/12/29 00:27:03;;;;;;;14.93;10.23;;;4.40;78.90;;;3.45;62.87;91779.63;5053953;28;20198;-81
2020/12/29 00:29:32;;;;;;;11.65;9.35;;;4.50;79.70;;;3.44;63.15;91791.03;5035681;28;20262;-81
2020/12/29 00:32:03;;;;;;;12.18;9.05;;;4.40;78.80;;;3.41;63.12;91786.28;5051417;28;20246;-80
2020/12/29 00:34:29;;;;;;;12.95;9.25;;;4.40;78.80;;;3.43;63.11;91789.44;5064362;28;20231;-81
2020/12/29 00:36:56;;;;;;;14.50;9.85;;;4.40;78.90;;;3.46;63.34;91788.22;5050385;28;20207;-81
2020/12/29 00:39:23;;;;;;;11.25;8.40;;;4.40;79.00;;;3.45;63.01;91805.53;5040932;28;20231;-81
2020/12/29 00:41:49;;;;;;;10.75;7.93;;;4.40;78.90;;;3.40;63.06;91810.63;5074768;28;20270;-81
2020/12/29 00:44:17;;;;;;;13.60;8.93;;;4.50;79.00;;;3.44;63.30;91834.28;5055410;28;20313;-81
2020/12/29 00:46:44;;;;;;;12.40;8.30;;;4.40;79.00;;;3.43;63.19;91835.28;5045174;28;20188;-81
2020/12/29 00:49:11;;;;;;;12.10;8.63;;;4.40;78.90;;;3.43;62.97;91836.09;5070004;28;20216;-81
2020/12/29 00:51:38;;;;;;;12.45;8.80;;;4.40;78.90;;;3.40;63.02;91838.34;5057605;28;20544;-81
2020/12/29 00:54:05;;;;;;;10.48;8.10;;;4.40;78.90;;;3.41;63.31;91861.41;5073698;28;20252;-81
2020/12/29 00:56:40;;;;;;;9.45;7.00;;;4.40;79.00;;;3.42;63.14;91859.59;5074296;28;20195;-81
2020/12/29 00:59:08;;;;;;;9.52;6.72;;;4.40;79.00;;;3.42;63.11;91865.59;5055792;28;20219;-81
2020/12/29 01:01:37;;;;;;;9.40;6.95;;;4.40;78.90;;;3.41;63.25;91874.38;5041939;28;20662;-81
2020/12/29 01:04:24;;;;;;;9.30;6.82;;;4.40;79.00;;;3.40;63.40;91880.56;5040008;28;20227;-81
2020/12/29 01:06:52;;;;;;;10.57;6.97;;;4.40;79.80;;;3.35;62.97;91883.81;5038480;28;20196;-81
2020/12/29 01:09:23;;;;;;;7.10;6.13;;;4.30;78.90;;;3.39;63.10;91885.97;5056964;28;20211;-81
2020/12/29 01:11:53;;;;;;;8.38;6.18;;;4.40;79.00;;;3.38;63.17;91900.72;5057930;28;20230;-81
2020/12/29 01:14:21;;;;;;;8.00;5.95;;;4.30;78.90;;;3.38;63.45;91912.88;5053857;28;20600;-80
2020/12/29 01:17:02;;;;;;;7.47;5.72;;;4.30;78.90;;;3.38;63.15;91920.66;5059376;28;20599;-81
2020/12/29 01:19:29;;;;;;;7.05;5.88;;;4.30;78.90;;;3.36;63.51;91924.25;5038161;28;20722;-81
2020/12/29 01:21:56;;;;;;;6.82;5.50;;;4.40;79.00;;;3.34;63.41;91915.13;5052525;28;20196;-82
2020/12/29 01:24:22;;;;;;;6.45;4.97;;;4.40;79.10;;;3.32;63.58;91905.00;5064457;28;20231;-81
2020/12/29 01:26:49;;;;;;;5.75;4.82;;;4.30;79.00;;;3.33;63.20;91916.13;5053447;28;20299;-82
2020/12/29 01:29:16;;;;;;;5.57;4.50;;;4.40;79.90;;;3.38;63.51;91931.03;5053662;28;20361;-82
2020/12/29 01:31:42;;;;;;;4.55;3.80;;;4.30;79.10;;;3.38;63.20;91938.78;5045285;28;20211;-80
2020/12/29 01:34:09;;;;;;;5.20;4.15;;;4.30;79.00;;;3.33;63.41;91945.44;5051985;28;20259;-82
2020/12/29 01:36:36;;;;;;;5.40;4.50;;;4.30;79.10;;;3.40;63.29;91953.09;5053248;28;20216;-83
2020/12/29 01:39:03;;;;;;;5.22;4.30;;;4.30;79.10;;;3.42;63.71;91960.66;5037835;28;20230;-82
2020/12/29 01:41:35;;;;;;;5.03;4.45;;;4.50;79.30;;;3.44;63.51;91954.25;5073173;28;20653;-82
2020/12/29 01:44:20;;;;;;;5.13;4.63;;;4.40;79.30;;;3.45;63.56;91963.59;5056161;28;20199;-82
2020/12/29 01:46:52;;;;;;;6.15;4.63;;;4.40;79.30;;;3.45;63.32;91973.94;5070342;28;20556;-81
2020/12/29 01:49:19;;;;;;;5.10;4.32;;;4.40;79.30;;;3.49;63.67;91972.53;5036300;28;20238;-82
2020/12/29 01:51:46;;;;;;;5.20;4.38;;;4.40;79.30;;;3.52;63.46;91976.47;5054828;28;20199;-82
2020/12/29 01:54:12;;;;;;;4.90;4.43;;;4.40;79.30;;;3.53;63.52;91981.41;5060702;28;20216;-82
2020/12/29 01:56:41;;;;;;;5.78;4.80;;;4.40;79.30;;;3.55;63.32;91990.78;5052696;28;20242;-82
2020/12/29 01:59:13;;;;;;;6.70;4.93;;;4.50;79.40;;;3.55;63.61;91975.22;5061193;28;20633;-82
2020/12/29 02:01:42;;;;;;;5.72;5.10;;;4.50;79.40;;;3.59;63.44;91987.53;5036273;28;20599;-82
2020/12/29 02:04:12;;;;;;;5.20;4.70;;;4.50;79.40;;;3.61;63.63;91995.84;5058463;28;20223;-82
2020/12/29 02:06:40;;;;;;;6.13;5.18;;;4.50;79.40;;;3.64;63.46;91987.66;5051872;28;20560;-81
2020/12/29 02:09:10;;;;;;;6.15;5.20;;;4.50;79.40;;;3.62;63.51;91989.66;5062637;28;20204;-81
2020/12/29 02:11:37;;;;;;;6.63;5.57;;;4.50;79.30;;;3.66;63.54;91984.81;5036306;28;20207;-81
2020/12/29 02:14:06;;;;;;;6.65;5.10;;;4.60;79.40;;;3.67;63.47;91997.59;5052983;28;20192;-81
2020/12/29 02:16:42;;;;;;;5.82;4.88;;;4.60;79.40;;;3.68;63.34;91988.00;5056079;28;20223;-82
2020/12/29 02:19:10;;;;;;;6.00;4.47;;;4.60;79.40;;;3.65;63.19;91985.84;5052240;28;20211;-81
2020/12/29 02:21:38;;;;;;;5.10;4.60;;;4.60;79.30;;;3.68;63.25;91988.00;5062577;28;20199;-83
2020/12/29 02:24:07;;;;;;;5.70;5.20;;;4.60;79.20;;;3.63;63.15;91983.47;5050989;28;20199;-81
2020/12/29 02:26:35;;;;;;;6.07;4.70;;;4.60;79.20;;;3.63;63.21;91983.47;5052769;28;20223;-82
2020/12/29 02:29:05;;;;;;;5.15;4.65;;;4.60;79.20;;;3.63;63.42;91993.84;5052338;28;20243;-81
2020/12/29 02:31:32;;;;;;;5.93;5.22;;;4.60;79.20;;;3.65;62.90;91996.19;5032692;28;20202;-81
2020/12/29 02:34:00;;;;;;;5.45;4.63;;;4.60;79.20;;;3.59;63.23;91994.50;5040383;28;20235;-81
2020/12/29 02:36:27;;;;;;;5.80;5.20;;;4.60;79.10;;;3.56;63.16;92003.50;5031392;28;20200;-82
2020/12/29 02:38:53;;;;;;;5.43;4.90;;;4.60;79.10;;;3.52;63.23;92003.16;5052792;28;20199;-81
2020/12/29 02:41:20;;;;;;;6.10;5.03;;;4.50;78.90;;;3.50;63.48;91987.06;5052376;28;20187;-81
2020/12/29 02:43:47;;;;;;;6.57;4.65;;;4.60;78.90;;;3.47;63.15;91986.72;5065591;28;20226;-82
2020/12/29 02:46:14;;;;;;;5.63;4.97;;;4.50;78.80;;;3.41;62.95;92001.31;5044398;28;20192;-81
2020/12/29 02:48:41;;;;;;;5.43;4.88;;;4.50;78.80;;;3.37;62.70;92010.56;5033105;28;20214;-81
2020/12/29 02:51:13;;;;;;;5.18;4.68;;;4.50;79.60;;;3.31;62.96;92004.44;5044648;28;20307;-81
2020/12/29 02:53:40;;;;;;;5.28;4.75;;;4.40;78.70;;;3.22;63.17;92008.34;5047207;28;20195;-82
2020/12/29 02:56:07;;;;;;;5.72;5.13;;;4.40;78.60;;;3.16;62.75;92010.03;5067127;28;20243;-81
2020/12/29 02:58:35;;;;;;;5.90;4.88;;;4.30;78.50;;;3.09;63.09;92019.66;5063450;28;20221;-81
2020/12/29 03:01:02;;;;;;;7.53;4.93;;;4.30;78.50;;;3.04;62.97;92024.72;5058182;28;20628;-80
2020/12/29 03:03:28;;;;;;;6.10;5.15;;;4.20;78.70;;;2.96;63.20;92032.75;5041985;28;20239;-81
2020/12/29 03:05:55;;;;;;;6.18;5.25;;;4.20;78.50;;;2.91;63.03;92030.03;5049021;28;20510;-80
2020/12/29 03:08:22;;;;;;;5.60;5.00;;;4.10;78.50;;;2.82;63.11;92025.13;5029968;28;20667;-80
2020/12/29 03:10:49;;;;;;;5.25;4.70;;;4.10;78.60;;;2.79;62.96;92029.97;5047114;28;20230;-80
2020/12/29 03:13:15;;;;;;;6.40;5.53;;;4.00;78.60;;;2.75;63.49;92031.38;5051054;28;20387;-82
2020/12/29 03:15:42;;;;;;;6.10;5.15;;;4.00;78.70;;;2.71;63.56;92028.44;5049011;28;20223;-81
2020/12/29 03:18:09;;;;;;;6.68;5.50;;;3.90;78.70;;;2.69;63.43;92033.81;5035525;28;20200;-80
2020/12/29 03:20:36;;;;;;;6.25;5.47;;;3.80;78.70;;;2.65;63.40;92024.09;5029944;28;20240;-80
2020/12/29 03:23:03;;;;;;;6.18;5.10;;;3.80;78.70;;;2.62;63.38;92022.75;5064128;28;20214;-81
2020/12/29 03:25:29;;;;;;;5.10;4.50;;;3.70;78.60;;;2.54;63.41;92023.06;5031865;28;20740;-80
2020/12/29 03:27:56;;;;;;;5.30;4.80;;;3.70;78.60;;;2.51;63.16;92023.47;5045759;28;20216;-82
2020/12/29 03:30:23;;;;;;;5.57;4.88;;;3.70;78.60;;;2.40;63.36;92015.41;5061487;28;20239;-81
2020/12/29 03:32:51;;;;;;;5.97;4.60;;;3.60;78.50;;;2.36;63.13;92023.81;5030000;28;20194;-82
2020/12/29 03:35:18;;;;;;;5.63;4.60;;;3.60;78.50;;;2.28;63.07;92026.66;5030886;28;20246;-82
2020/12/29 03:37:44;;;;;;;5.63;4.78;;;3.50;78.40;;;2.21;63.20;92026.69;5030761;28;20273;-82
2020/12/29 03:40:12;;;;;;;5.78;4.88;;;3.40;78.40;;;2.13;63.40;92029.56;5045033;28;20596;-81
2020/12/29 03:42:39;;;;;;;4.88;4.35;;;3.40;78.40;;;2.06;63.23;92039.97;5056559;28;20559;-81
2020/12/29 03:45:06;;;;;;;5.50;4.70;;;3.40;78.40;;;2.01;63.16;92048.34;5033674;28;20256;-81
2020/12/29 03:47:33;;;;;;;5.00;4.50;;;3.30;79.30;;;1.93;63.28;92051.19;5048306;28;20191;-82
2020/12/29 03:49:59;;;;;;;5.68;4.22;;;3.20;78.30;;;1.84;63.29;92050.66;5024876;28;20216;-81
2020/12/29 03:52:26;;;;;;;5.90;4.45;;;3.10;78.30;;;1.79;63.49;92047.13;5042172;28;20624;-81
2020/12/29 03:54:53;;;;;;;5.10;4.40;;;3.10;78.40;;;1.74;63.28;92051.09;5058755;28;20311;-81
2020/12/29 03:57:19;;;;;;;5.88;4.75;;;3.00;78.40;;;1.72;63.94;92058.28;5042956;28;20199;-81
2020/12/29 04:14:42;;;;;;;5.47;4.47;;;2.80;78.90;;;1.27;64.18;92079.78;5065648;28;20254;-81
2020/12/29 04:17:08;;;;;;;5.63;4.18;;;2.70;79.10;;;1.28;64.09;92085.72;5033683;28;20200;-81
2020/12/29 04:19:35;;;;;;;6.18;4.45;;;2.60;78.80;;;1.32;64.09;92086.91;5052443;28;20223;-81
2020/12/29 04:22:03;;;;;;;5.25;4.25;;;2.60;78.90;;;1.31;64.13;92093.06;5059457;28;20192;-81
2020/12/29 04:24:30;;;;;;;5.95;4.50;;;2.60;79.10;;;1.39;63.86;92103.19;5039148;28;20633;-82
2020/12/29 04:26:56;;;;;;;5.45;4.38;;;2.50;79.20;;;1.38;64.22;92093.84;5054102;28;20673;-82
2020/12/29 04:29:23;;;;;;;4.97;4.18;;;2.50;79.20;;;1.47;63.81;92111.69;5057258;28;20298;-82
2020/12/29 04:31:50;;;;;;;6.53;4.47;;;2.50;79.20;;;1.52;63.90;92119.59;5057539;28;20615;-81
2020/12/29 04:34:16;;;;;;;5.00;4.20;;;2.50;79.20;;;1.55;64.56;92126.94;5055680;28;20237;-82
2020/12/29 04:36:44;;;;;;;5.07;4.50;;;2.60;79.40;;;1.65;64.30;92132.47;5057264;28;20768;-82
2020/12/29 04:39:10;;;;;;;6.22;4.72;;;2.60;79.50;;;1.72;64.42;92133.22;5063719;28;20228;-81
2020/12/29 04:41:40;;;;;;;5.65;5.05;;;2.70;79.70;;;1.77;64.50;92142.94;5054461;28;20246;-80
2020/12/29 04:44:07;;;;;;;5.25;4.75;;;2.70;79.90;;;1.92;64.12;92142.66;5048697;28;20291;-81
2020/12/29 04:46:35;;;;;;;4.57;3.97;;;2.80;80.00;;;2.01;64.42;92138.81;5070542;28;20286;-81
2020/12/29 04:49:03;;;;;;;5.50;4.53;;;2.80;80.00;;;2.07;64.42;92137.97;5067193;28;20321;-80
2020/12/29 04:51:30;;;;;;;4.05;3.58;;;2.90;80.00;;;2.13;63.96;92149.28;5061703;28;20196;-81
2020/12/29 04:53:58;;;;;;;4.85;4.15;;;3.00;80.00;;;2.18;64.28;92144.28;5035673;28;20204;-81
2020/12/29 04:56:32;;;;;;;4.47;3.92;;;3.00;80.00;;;2.25;64.30;92154.59;5052294;28;20191;-82
2020/12/29 04:59:01;;;;;;;5.13;4.03;;;3.10;80.00;;;2.33;63.85;92169.88;5052020;28;20799;-81
2020/12/29 05:01:34;;;;;;;4.18;3.78;;;3.10;80.00;;;2.38;64.43;92187.31;5045490;28;20191;-81
2020/12/29 05:04:02;;;;;;;4.00;3.60;;;3.30;80.10;;;2.46;64.03;92196.66;5055734;28;20210;-82
2020/12/29 05:06:28;;;;;;;4.28;3.83;;;3.20;80.00;;;2.54;64.13;92196.41;5055868;28;20187;-82
2020/12/29 05:08:56;;;;;;;4.93;3.50;;;3.30;80.00;;;2.58;63.98;92202.72;5063852;28;20293;-82
2020/12/29 05:11:25;;;;;;;4.38;3.30;;;3.30;79.80;;;2.62;63.71;92205.69;5056532;28;20253;-81
2020/12/29 05:13:52;;;;;;;4.07;3.65;;;3.40;79.80;;;2.64;63.80;92219.22;5057302;28;20199;-81
2020/12/29 05:16:18;;;;;;;3.97;3.30;;;3.40;79.80;;;2.66;64.02;92228.34;5069397;28;20230;-81
2020/12/29 05:18:46;;;;;;;4.15;3.35;;;3.50;79.90;;;2.64;63.79;92224.41;5037233;28;20278;-82
2020/12/29 05:21:13;;;;;;;4.88;3.75;;;3.50;79.90;;;2.69;63.74;92230.50;5037228;28;20323;-81
2020/12/29 05:23:40;;;;;;;5.03;3.75;;;3.50;79.80;;;2.69;63.79;92234.91;5038848;28;20227;-81
2020/12/29 05:26:07;;;;;;;3.20;2.90;;;3.60;79.70;;;2.70;63.82;92233.91;5039573;28;20221;-81
2020/12/29 05:28:36;;;;;;;3.42;3.13;;;3.60;79.60;;;2.71;63.56;92232.88;5040362;28;20199;-81
2020/12/29 05:31:05;;;;;;;3.00;2.67;;;3.60;79.50;;;2.70;63.58;92236.50;5073138;28;20211;-81
2020/12/29 05:33:32;;;;;;;3.50;2.80;;;3.60;79.60;;;2.71;63.73;92241.44;5073400;28;20222;-81
2020/12/29 05:36:01;;;;;;;3.20;2.83;;;3.60;79.50;;;2.75;63.17;92234.06;5048927;28;20262;-81
2020/12/29 05:38:27;;;;;;;3.90;2.95;;;3.70;79.50;;;2.76;63.60;92234.84;5036954;28;20188;-81
2020/12/29 05:40:55;;;;;;;3.38;2.97;;;3.60;79.40;;;2.77;63.57;92224.31;5053875;28;20255;-81
2020/12/29 05:43:30;;;;;;;3.22;2.92;;;3.70;79.40;;;2.80;63.55;92236.03;5054388;28;20202;-82
2020/12/29 05:46:01;;;;;;;3.40;2.85;;;3.70;79.20;;;2.81;63.63;92235.81;5051514;28;20222;-80
2020/12/29 05:48:28;;;;;;;3.10;2.13;;;3.70;79.30;;;2.83;63.28;92238.19;5055938;28;20191;-82
2020/12/29 05:50:54;;;;;;;2.72;2.53;;;3.70;79.30;;;2.88;63.50;92243.50;5071379;28;20238;-81
2020/12/29 05:53:23;;;;;;;2.97;2.78;;;3.70;79.20;;;2.92;63.15;92262.00;5056072;28;20198;-81
2020/12/29 05:55:50;;;;;;;3.95;2.67;;;3.80;79.30;;;2.93;63.43;92259.22;5038621;28;20219;-79
2020/12/29 05:58:18;;;;;;;3.20;2.60;;;3.80;80.00;;;2.95;63.00;92274.53;5049996;28;20631;-79
2020/12/29 06:00:47;;;;;;;4.47;3.60;;;3.80;79.20;;;2.96;63.38;92289.84;5054201;28;20230;-81
2020/12/29 06:03:14;;;;;;;2.95;2.65;;;3.80;79.10;;;2.98;62.90;92297.41;5045356;28;20196;-81
2020/12/29 06:05:47;;;;;;;2.60;2.40;;;3.90;79.10;;;2.97;62.61;92312.16;5069525;28;20657;-81
2020/12/29 06:08:17;;;;;;;2.65;2.45;;;3.90;79.00;;;2.95;62.80;92318.56;5068504;28;20190;-81
2020/12/29 06:10:58;;;;;;;2.50;2.22;;;3.90;78.90;;;2.91;62.66;92313.00;5041155;28;20629;-82
2020/12/29 06:13:28;;;;;;;2.80;2.30;;;3.80;78.80;;;2.91;62.62;92313.00;5052799;28;20204;-81
2020/12/29 06:15:58;;;;;;;2.40;2.20;;;3.80;78.70;;;2.90;62.65;92318.41;5031797;28;20322;-80
2020/12/29 06:18:36;;;;;;;4.57;3.30;;;3.80;78.60;;;2.88;62.42;92332.34;5054832;28;20195;-81
2020/12/29 06:21:06;;;;;;;2.55;2.35;;;3.80;78.50;;;2.81;62.51;92336.75;5052467;28;20680;-82
2020/12/29 06:23:48;;;;;;;2.90;2.70;;;3.80;78.40;;;2.81;62.51;92348.91;5037124;28;20211;-82
2020/12/29 06:26:20;;;;;;;2.00;1.90;;;3.80;79.10;;;2.74;62.54;92345.56;5051671;28;20274;-81
2020/12/29 06:28:53;;;;;;;2.42;2.15;;;3.80;78.20;;;2.67;62.84;92348.19;5028945;28;20635;-81
2020/12/29 06:31:27;;;;;;;2.75;1.90;;;3.80;78.20;;;2.61;62.54;92347.19;5073284;28;20255;-80
2020/12/29 06:33:56;;;;;;;2.25;2.05;;;3.70;78.10;;;2.50;62.25;92342.69;5029859;28;20643;-81
2020/12/29 06:36:29;;;;;;;2.83;2.08;;;3.60;78.00;;;2.47;62.44;92362.00;5069175;28;20298;-81
2020/12/29 06:39:07;;;;;;;2.22;1.75;;;3.60;78.00;;;2.38;62.31;92360.63;5068706;28;20269;-80
2020/12/29 06:41:35;;;;;;;2.03;1.83;;;3.60;78.00;;;2.33;62.39;92357.88;5070790;28;20213;-81
2020/12/29 06:44:05;;;;;;;3.40;2.00;;;3.50;78.00;;;2.27;62.73;92362.09;5068641;28;20222;-81
2020/12/29 06:46:33;;;;;;;2.08;1.90;;;3.40;77.90;;;2.19;62.48;92359.72;5065527;28;20207;-80
2020/12/29 06:49:20;;;;;;;1.88;1.60;;;3.40;77.90;;;2.10;62.17;92369.50;5064682;28;20215;-81
2020/12/29 06:51:48;;;;;;;2.88;2.10;;;3.30;78.00;;;2.01;62.39;92375.88;5058698;28;20226;-81
2020/12/29 06:54:20;;;;;;;2.38;2.03;;;3.30;77.90;;;1.91;62.44;92376.28;5062420;28;20690;-81
2020/12/29 06:57:00;;;;;;;2.42;2.03;;;3.20;77.80;;;1.80;62.40;92388.03;5043810;28;20220;-81
2020/12/29 06:59:41;;;;;;;2.55;2.10;;;3.10;77.90;;;1.71;62.63;92387.44;5050187;28;20232;-81
2020/12/29 07:02:19;;;;;;;3.10;2.40;;;3.00;77.80;;;1.63;62.66;92387.63;5058163;28;20196;-81
2020/12/29 07:04:52;;;;;;;3.13;2.40;;;3.00;77.90;;;1.55;62.83;92391.22;5043477;28;20253;-81
2020/12/29 07:07:32;;;;;;;2.92;2.63;;;2.90;77.90;;;1.54;62.78;92399.19;5049885;28;20186;-80
2020/12/29 07:10:09;;;;;;;3.47;2.45;;;2.80;78.10;;;1.48;62.96;92392.22;5076647;28;20231;-81
2020/12/29 07:12:39;;;;;;;2.80;2.10;;;2.80;78.00;;;1.48;62.80;92392.22;5046297;28;20708;-82
2020/12/29 07:15:06;;;;;;;3.58;2.03;;;2.70;78.00;;;1.46;63.09;92396.78;5057381;28;20574;-80
2020/12/29 07:17:33;;;;;;;2.05;1.80;;;2.70;78.10;;;1.45;62.89;92395.97;5053635;28;20195;-81
2020/12/29 07:20:00;;;;;;;1.73;1.63;;;2.70;78.20;;;1.43;63.25;92395.41;5029348;28;20235;-80
2020/12/29 07:22:27;;;;;;;2.60;2.03;;;2.60;78.20;;;1.43;62.99;92401.34;5061106;28;20273;-80
2020/12/29 07:24:55;;;;;;;2.20;1.80;;;2.60;78.20;;;1.42;62.93;92399.75;5053524;28;20223;-80
2020/12/29 07:27:27;;;;;;;1.88;1.75;;;2.60;79.10;;;1.47;62.94;92408.72;5052981;28;20209;-81
2020/12/29 07:29:59;;;;;;;1.95;1.40;;;2.50;78.30;;;1.43;62.99;92405.75;5064173;28;20881;-80
2020/12/29 07:32:26;;;;;;;1.85;1.75;;;2.60;78.50;;;1.54;63.27;92430.19;5049080;28;20219;-81
2020/12/29 07:34:53;;;;;;;1.80;1.55;;;2.50;78.50;;;1.57;63.29;92435.72;5054010;28;20343;-81
2020/12/29 07:37:23;;;;;;;1.50;1.40;;;2.50;78.60;;;1.64;63.35;92434.97;5071275;28;20206;-81
2020/12/29 07:39:50;;;;;;;1.50;1.40;;;2.60;78.70;;;1.72;63.20;92437.31;5049313;28;20326;-81
2020/12/29 07:42:17;;;;;;;1.45;1.35;;;2.60;78.70;;;1.74;62.90;92436.13;5064661;28;20199;-81
2020/12/29 07:44:44;;;;;;;2.45;1.50;;;2.70;78.80;;;1.84;63.10;92442.69;5059977;28;20426;-80
2020/12/29 07:47:11;;;;;;;1.50;1.40;;;2.70;78.80;;;1.86;63.11;92449.25;5043442;28;20658;-82
2020/12/29 07:49:38;;;;;;;1.45;1.35;;;2.70;78.80;;;1.91;63.02;92448.66;5049895;28;20242;-81
2020/12/29 07:52:04;;;;;;;1.63;1.52;;;2.80;78.80;;;2.00;62.95;92462.16;5045898;28;20300;-81
2020/12/29 07:54:33;;;;;;;1.27;1.15;;;2.80;78.80;;;2.06;62.92;92467.34;5049895;28;20222;-81
2020/12/29 07:57:00;;;;;;;1.48;1.20;;;2.90;78.90;;;2.12;63.06;92473.50;5049057;28;20203;-81
2020/12/29 07:59:26;;;;;;;1.42;1.30;;;3.00;78.90;;;2.16;62.74;92479.06;5052536;28;20266;-81
2020/12/29 08:01:58;;;;;;;1.10;1.00;;;3.00;78.80;;;2.19;63.05;92484.63;5062360;28;20666;-81
2020/12/29 08:04:35;;;;;;;1.50;1.40;;;3.00;78.80;;;2.30;62.92;92492.78;5064676;28;20223;-81
2020/12/29 08:07:09;;;;;;;1.40;1.30;;;3.10;78.90;;;2.43;62.78;92491.97;5052862;28;20209;-81
2020/12/29 08:09:49;;;;;;;1.50;1.40;;;3.10;78.90;;;2.56;62.80;92489.34;5053472;28;20236;-81
2020/12/29 08:12:16;;;;;;;1.50;1.40;;;3.20;78.90;;;2.64;62.83;92498.72;5044349;28;20356;-81
2020/12/29 08:14:44;;;;;;;1.75;1.55;;;3.30;79.10;;;2.74;62.83;92503.47;5063641;28;20254;-81
2020/12/29 08:17:10;;;;;;;1.42;1.33;;;3.40;79.10;;;2.81;62.64;92517.19;5058052;28;20657;-82
2020/12/29 08:19:38;;;;;;;1.88;1.30;;;3.50;79.10;;;2.88;62.52;92526.50;5049349;28;20718;-82
2020/12/29 08:22:09;;;;;;;1.67;1.50;;;3.60;79.10;;;2.95;62.48;92529.06;5048700;28;20235;-82
2020/12/29 08:24:39;;;;;;;1.52;1.30;;;3.60;78.90;;;3.06;62.64;92537.22;5046681;28;20327;-81
2020/12/29 08:27:06;;;;;;;1.20;1.20;;;3.70;78.90;;;3.15;62.44;92535.97;5064532;28;20214;-82
2020/12/29 08:29:35;;;;;;;1.30;1.20;;;3.70;78.90;;;3.19;62.14;92537.94;5037659;28;20306;-81
2020/12/29 08:32:13;;;;;;;1.30;1.20;;;3.90;78.90;;;3.29;62.06;92554.84;5028560;28;20196;-82
2020/12/29 08:34:41;;;;;;;1.40;1.30;;;3.90;78.70;;;3.34;62.18;92553.25;5055732;28;20215;-81
2020/12/29 08:37:08;;;;;;;1.60;1.30;;;4.00;78.70;;;3.46;62.05;92565.56;5047741;28;20195;-82
2020/12/29 08:40:01;;;;;;;2.33;1.30;;;4.10;78.80;;;3.57;61.93;92564.13;5047495;28;20223;-82
2020/12/29 08:42:33;;;;;;;1.50;1.40;;;4.10;78.20;;;3.67;61.85;92560.06;5049247;28;20286;-80
2020/12/29 08:45:05;;;;;;;1.80;1.40;;;4.30;79.30;;;3.76;62.02;92570.19;5060122;28;20242;-82
2020/12/29 08:47:33;;;;;;;1.40;1.30;;;4.30;78.60;;;3.85;61.55;92582.69;5064960;28;20200;-82
2020/12/29 08:50:24;;;;;;;1.50;1.40;;;4.40;78.70;;;3.91;61.50;92588.84;5052260;28;20211;-82
2020/12/29 08:53:04;;;;;;;1.65;1.48;;;4.50;78.30;;;3.96;61.36;92594.19;5049582;28;20204;-82
2020/12/29 08:55:32;;;;;;;1.38;1.27;;;4.60;78.10;;;4.02;61.20;92597.78;5021075;28;20212;-82
2020/12/29 08:58:00;;;;;;;1.42;1.17;;;4.60;78.40;;;4.04;61.38;92606.16;5053490;28;20199;-82
2020/12/29 09:00:31;;;;;;;1.55;1.20;;;4.70;78.50;;;4.12;61.80;92613.66;5044581;28;20231;-82
2020/12/29 09:02:59;;;;;;;2.20;1.50;;;4.70;78.50;;;4.12;61.29;92608.47;5019416;28;20446;-82
2020/12/29 09:05:29;;;;;;;1.40;1.10;;;4.70;78.40;;;4.22;61.56;92610.59;5036936;28;20224;-81
2020/12/29 09:07:56;;;;;;;2.15;1.40;;;4.80;79.30;;;4.27;61.27;92618.56;5042810;28;20211;-81
2020/12/29 09:10:23;;;;;;;2.15;1.70;;;4.80;78.40;;;4.28;61.53;92608.97;5070257;28;20226;-81
2020/12/29 09:12:50;;;;;;;2.42;1.50;;;4.90;78.50;;;4.34;61.25;92615.91;5071831;28;20249;-82
2020/12/29 09:15:27;;;;;;;4.00;1.58;;;4.90;78.40;;;4.38;61.60;92614.50;5056400;28;20237;-82
2020/12/29 09:17:59;;;;;;;3.13;1.38;;;4.90;77.90;;;4.51;61.34;92625.81;5045471;28;20258;-82
2020/12/29 09:20:30;;;;;;;1.92;1.30;;;5.00;78.10;;;4.56;61.42;92631.94;5056933;28;20355;-82
2020/12/29 09:23:12;;;;;;;1.30;1.20;;;5.10;78.10;;;4.62;60.95;92625.91;5052582;28;20238;-81
2020/12/29 09:25:44;;;;;;;3.28;1.60;;;5.10;77.60;;;4.68;60.96;92634.66;5052530;28;20223;-82
2020/12/29 09:28:27;;;;;;;2.45;1.80;;;5.20;79.10;;;4.78;61.02;92645.34;5039243;28;20240;-81
2020/12/29 09:31:05;;;;;;;1.65;1.55;;;5.20;77.90;;;4.88;60.96;92642.28;5037107;28;20311;-81
2020/12/29 09:33:34;;;;;;;1.60;1.50;;;5.30;78.30;;;4.96;61.15;92636.81;5043736;28;20231;-82
2020/12/29 09:36:03;;;;;;;1.80;1.30;;;5.40;78.30;;;5.02;60.80;92637.75;5036346;28;20222;-81
2020/12/29 09:38:31;;;;;;;1.67;1.33;;;5.40;78.40;;;5.08;60.75;92630.94;5028515;28;20196;-82
2020/12/29 09:41:01;;;;;;;1.00;1.00;;;5.50;78.20;;;5.16;60.56;92629.84;5059273;28;20227;-81
2020/12/29 09:43:28;;;;;;;1.95;1.10;;;5.50;78.10;;;5.23;60.63;92638.38;5064518;28;21487;-81
2020/12/29 09:45:57;;;;;;;1.50;1.30;;;5.60;78.20;;;5.35;60.54;92651.47;5050167;28;20235;-81
2020/12/29 09:48:27;;;;;;;1.30;1.20;;;5.70;78.10;;;5.42;60.59;92662.56;5036690;28;20195;-81
2020/12/29 09:50:54;;;;;;;1.48;1.25;;;5.80;78.10;;;5.50;60.60;92656.31;5036248;28;20625;-82
2020/12/29 09:53:20;;;;;;;2.67;1.88;;;5.90;78.20;;;5.56;60.39;92660.63;5055765;28;20195;-81
2020/12/29 09:55:47;;;;;;;1.20;1.10;;;5.90;78.10;;;5.63;60.49;92652.75;5056956;28;20208;-79
2020/12/29 09:58:15;;;;;;;1.20;1.10;;;6.00;78.10;;;5.68;60.37;92661.50;5056132;28;20199;-82
2020/12/29 10:00:42;;;;;;;1.30;1.17;;;6.00;77.90;;;5.71;60.43;92663.69;5037264;28;21117;-82
2020/12/29 10:03:09;;;;;;;1.27;1.17;;;6.10;77.90;;;5.75;60.15;92657.00;5053688;28;20587;-83
2020/12/29 10:05:35;;;;;;;2.00;1.42;;;6.20;77.80;;;5.87;59.85;92654.47;5040341;28;20219;-82
2020/12/29 10:08:02;;;;;;;1.30;1.20;;;6.20;77.80;;;5.95;60.00;92658.59;5058786;28;20202;-79
2020/12/29 10:10:29;;;;;;;1.48;1.20;;;6.30;77.60;;;5.98;60.20;92650.34;5036946;28;20230;-79
2020/12/29 10:12:56;;;;;;;1.27;1.17;;;6.40;77.70;;;6.09;59.70;92665.25;5040151;28;20208;-80
2020/12/29 10:15:23;;;;;;;1.30;1.20;;;6.40;77.50;;;6.17;59.82;92661.53;5040946;28;20306;-77
2020/12/29 10:17:50;;;;;;;1.15;1.10;;;6.50;77.80;;;6.22;59.70;92661.66;5055393;28;20199;-79
2020/12/29 10:20:17;;;;;;;1.38;1.23;;;6.50;77.50;;;6.28;59.90;92646.97;5041492;28;20235;-78
2020/12/29 10:22:45;;;;;;;1.10;1.10;;;6.60;77.50;;;6.32;59.83;92658.53;5035428;28;20211;-82
2020/12/29 10:25:14;;;;;;;9.65;1.30;;;6.70;77.50;;;6.39;59.66;92651.41;5049864;28;20226;-82
2020/12/29 10:27:44;;;;;;;1.17;1.00;;;6.80;77.40;;;6.46;59.52;92647.94;5041544;28;20204;-82
2020/12/29 10:30:10;;;;;;;1.25;1.10;;;6.80;77.20;;;6.51;59.36;92650.69;5051203;28;20219;-82
2020/12/29 10:32:39;;;;;;;1.00;1.00;;;6.80;77.20;;;6.59;59.20;92641.75;5041067;28;20211;-82
2020/12/29 10:35:06;;;;;;;0.80;0.80;;;6.90;77.00;;;6.64;59.31;92647.06;5065973;28;20789;-82
2020/12/29 10:37:35;;;;;;;1.00;0.90;;;7.00;77.00;;;6.68;58.79;92650.84;5051167;28;20204;-81
2020/12/29 10:40:03;;;;;;;1.00;0.90;;;7.10;76.90;;;6.75;58.74;92650.72;5037705;28;20238;-82
2020/12/29 10:42:30;;;;;;;1.10;1.10;;;7.10;76.80;;;6.79;58.57;92655.28;5037273;28;20653;-81
2020/12/29 10:44:57;;;;;;;7.60;1.30;;;7.10;76.70;;;6.84;58.61;92657.22;5049978;28;20240;-82
2020/12/29 10:47:24;;;;;;;1.25;1.00;;;7.20;76.70;;;6.87;58.67;92654.94;5051001;28;20269;-82
2020/12/29 10:49:50;;;;;;;6.15;1.10;;;7.30;76.70;;;6.89;58.24;92645.06;5065704;28;20211;-82
2020/12/29 10:52:17;;;;;;;0.90;0.90;;;7.30;76.60;;;6.96;58.40;92650.19;5070393;28;20231;-82
2020/12/29 10:54:44;;;;;;;0.90;0.90;;;7.40;76.60;;;7.00;58.19;92650.53;5054350;28;20211;-81
2020/12/29 10:57:10;;;;;;;1.42;1.10;;;7.40;76.60;;;7.01;58.41;92660.72;5054130;28;20287;-81